Terminal Aerodrome Forecast
Issued by NWS

Home | Current Version | Previous Version | Text Only | Print | Product List | Glossary On
Versions: 1 2 3 4 5 6 7 8 9 10 11 12 13
000
FTUS43 KGLD 062332
TAFMCK
TAF
KMCK 062332Z 0700/0724 17011G18KT P6SM BKN200
     FM070600 18008KT P6SM SCT250 WS005/19045KT
     FM071300 09006KT P6SM SCT250
     FM072100 11015G23KT P6SM VCTS BKN050CB=

USA.gov is the U.S. government's official web portal to all federal, state and local government web resources and services.